Time;durP1;ratioP1;P1;durP2;ratioP2;P2;SDS_P1;SDS_P2;PMS_P1;PMS_P2;Temp;Humidity;BMP_temperature;BMP_pressure;BME280_temperature;BME280_humidity;BME280_pressure;Samples;Min_cycle;Max_cycle;Signal;HPM_P1;HPM_P2
2022/03/20 00:00:30;;;;;;;20.53;18.33;;;6.30;69.60;;;;;;5026122;28;20204;-89
2022/03/20 00:02:56;;;;;;;23.33;19.63;;;6.50;69.10;;;;;;5041879;28;20594;-89
2022/03/20 00:05:22;;;;;;;20.23;18.10;;;6.70;67.80;;;;;;5041098;28;20193;-88
2022/03/20 00:07:48;;;;;;;20.03;18.03;;;6.80;67.60;;;;;;5052060;28;20208;-88
2022/03/20 00:10:14;;;;;;;20.20;18.20;;;7.00;67.20;;;;;;5053577;28;20191;-89
2022/03/20 00:12:41;;;;;;;20.40;18.53;;;7.10;66.80;;;;;;5072457;28;20200;-88
2022/03/20 00:15:08;;;;;;;21.63;19.33;;;7.30;66.10;;;;;;5043767;28;20189;-89
2022/03/20 00:17:34;;;;;;;22.00;19.80;;;7.40;63.70;;;;;;5054902;28;20169;-88
2022/03/20 00:20:00;;;;;;;23.33;20.83;;;7.30;63.20;;;;;;5025621;28;20197;-88
2022/03/20 00:22:26;;;;;;;20.80;18.73;;;7.30;63.10;;;;;;5051743;28;20208;-89
2022/03/20 00:24:53;;;;;;;23.37;20.27;;;7.10;62.80;;;;;;5039835;28;20257;-88
2022/03/20 00:27:19;;;;;;;20.27;18.17;;;7.10;62.80;;;;;;5050384;28;20173;-88
2022/03/20 00:29:44;;;;;;;21.50;19.33;;;7.00;62.70;;;;;;5053747;28;20200;-88
2022/03/20 00:32:12;;;;;;;21.57;19.37;;;7.00;62.50;;;;;;5041471;28;20244;-88
2022/03/20 00:34:39;;;;;;;21.33;19.13;;;7.00;63.50;;;;;;5051803;28;20197;-89
2022/03/20 00:37:08;;;;;;;23.40;20.93;;;7.20;62.90;;;;;;5051300;28;20188;-89
2022/03/20 00:39:34;;;;;;;21.27;19.07;;;7.10;62.00;;;;;;5045065;28;20777;-88
2022/03/20 00:42:00;;;;;;;21.27;19.07;;;7.20;62.10;;;;;;5061396;28;20860;-88
2022/03/20 00:44:26;;;;;;;23.50;20.23;;;7.30;62.30;;;;;;5078755;28;20196;-89
2022/03/20 00:46:52;;;;;;;22.27;19.97;;;7.30;61.00;;;;;;5051791;28;20185;-89
2022/03/20 00:49:18;;;;;;;21.03;18.60;;;7.20;60.00;;;;;;5053920;28;20253;-89
2022/03/20 00:51:44;;;;;;;23.40;21.03;;;7.00;61.70;;;;;;5037211;28;20195;-89
2022/03/20 00:54:13;;;;;;;20.93;18.90;;;7.00;61.00;;;;;;5047604;28;20197;-89
2022/03/20 00:56:39;;;;;;;20.97;18.80;;;7.00;61.20;;;;;;5062297;28;20181;-88
2022/03/20 00:59:05;;;;;;;21.40;18.80;;;7.00;61.00;;;;;;5027467;28;20199;-88
2022/03/20 01:01:32;;;;;;;19.83;17.73;;;6.90;60.10;;;;;;5053132;28;20189;-90
2022/03/20 01:03:59;;;;;;;22.27;19.97;;;6.80;60.40;;;;;;5025225;28;20204;-88
2022/03/20 01:06:24;;;;;;;21.60;19.40;;;6.80;60.30;;;;;;5042823;28;20200;-88
2022/03/20 01:08:51;;;;;;;21.13;18.10;;;6.70;60.60;;;;;;5043018;28;20200;-88
2022/03/20 01:11:17;;;;;;;21.83;19.73;;;6.80;60.20;;;;;;5056295;28;20247;-88
2022/03/20 01:13:43;;;;;;;20.77;18.57;;;6.70;60.20;;;;;;5041380;28;20200;-89
2022/03/20 01:16:09;;;;;;;21.50;19.23;;;6.60;61.30;;;;;;5040575;28;20192;-88
2022/03/20 01:18:35;;;;;;;21.17;18.87;;;6.40;61.40;;;;;;5049368;28;20207;-88
2022/03/20 01:21:01;;;;;;;20.73;18.63;;;6.40;62.30;;;;;;5042884;28;20184;-88
2022/03/20 01:23:27;;;;;;;20.60;18.47;;;6.10;62.20;;;;;;5032240;28;20232;-88
2022/03/20 01:25:53;;;;;;;21.50;19.33;;;6.00;62.60;;;;;;5051541;28;20180;-89
2022/03/20 01:28:20;;;;;;;22.57;20.30;;;5.80;63.50;;;;;;5042457;28;20173;-88
2022/03/20 01:30:47;;;;;;;23.17;20.70;;;5.60;64.10;;;;;;5052769;28;20188;-88
2022/03/20 01:33:16;;;;;;;21.23;19.03;;;5.30;65.00;;;;;;5058430;28;20207;-88
2022/03/20 01:35:42;;;;;;;22.50;18.47;;;5.10;66.20;;;;;;5030292;28;20197;-88
2022/03/20 01:38:08;;;;;;;22.43;18.67;;;5.00;66.50;;;;;;5049133;28;20244;-89
2022/03/20 01:40:35;;;;;;;22.13;19.80;;;4.80;66.90;;;;;;5080964;28;20202;-88
2022/03/20 01:43:01;;;;;;;20.47;18.33;;;4.60;67.80;;;;;;5074622;28;20216;-87
2022/03/20 01:45:28;;;;;;;20.50;18.30;;;4.50;69.10;;;;;;5024488;28;20287;-88
2022/03/20 01:47:54;;;;;;;23.70;19.97;;;4.70;68.20;;;;;;5042181;28;20180;-88
2022/03/20 01:50:25;;;;;;;19.83;17.90;;;4.80;67.50;;;;;;5042743;28;20256;-88
2022/03/20 01:52:53;;;;;;;18.43;16.43;;;4.90;67.80;;;;;;5025743;28;20244;-88
2022/03/20 01:55:20;;;;;;;20.83;18.67;;;5.20;67.80;;;;;;5043128;28;20245;-88
2022/03/20 01:57:46;;;;;;;19.83;17.73;;;5.40;64.00;;;;;;5043039;28;20185;-88
2022/03/20 02:00:15;;;;;;;21.47;19.27;;;5.40;62.30;;;;;;5049817;28;20395;-88
2022/03/20 02:02:41;;;;;;;20.43;18.33;;;5.40;62.00;;;;;;5050755;28;20213;-89
2022/03/20 02:05:09;;;;;;;19.73;17.63;;;5.40;61.70;;;;;;5046171;28;20181;-88
2022/03/20 02:07:36;;;;;;;22.83;18.33;;;5.60;62.90;;;;;;5062583;28;20189;-89
2022/03/20 02:10:03;;;;;;;21.73;18.73;;;5.60;61.10;;;;;;5058652;28;20193;-89
2022/03/20 02:12:29;;;;;;;20.97;18.67;;;5.60;61.20;;;;;;5062870;28;20211;-88
2022/03/20 02:15:01;;;;;;;22.37;18.27;;;5.50;60.70;;;;;;5054640;28;20189;-89
2022/03/20 02:17:28;;;;;;;21.83;19.47;;;5.50;60.50;;;;;;5042371;28;20203;-88
2022/03/20 02:19:59;;;;;;;20.73;18.57;;;5.50;60.50;;;;;;5032998;28;20674;-88
2022/03/20 02:22:28;;;;;;;20.60;18.00;;;5.50;60.40;;;;;;5066700;23;20669;-83
2022/03/20 02:24:53;;;;;;;21.00;18.43;;;5.50;60.40;;;;;;5033146;28;20621;-83
2022/03/20 02:27:24;;;;;;;20.57;18.10;;;5.60;60.30;;;;;;5016273;28;20193;-84
2022/03/20 02:30:12;;;;;;;21.83;18.70;;;5.50;60.20;;;;;;5028433;28;20204;-84
2022/03/20 02:32:45;;;;;;;19.67;17.60;;;5.50;59.90;;;;;;5031579;28;20193;-83
2022/03/20 02:35:15;;;;;;;19.37;17.23;;;5.30;60.50;;;;;;5033443;28;20177;-84
2022/03/20 02:38:02;;;;;;;22.47;18.13;;;5.50;60.70;;;;;;5041498;28;20199;-84
2022/03/20 02:40:47;;;;;;;19.27;17.27;;;5.50;59.50;;;;;;5025600;28;20189;-84
2022/03/20 02:43:18;;;;;;;20.83;18.63;;;5.50;59.80;;;;;;5022586;28;20217;-84
2022/03/20 02:46:39;;;;;;;19.90;17.70;;;5.60;59.50;;;;;;5024627;28;20192;-84
2022/03/20 02:49:10;;;;;;;19.50;17.50;;;5.70;58.30;;;;;;4942456;29;20208;-84
2022/03/20 02:51:48;;;;;;;19.53;17.53;;;5.60;58.40;;;;;;4927102;29;20544;-84
2022/03/20 02:58:40;;;;;;;21.77;17.57;;;5.70;58.60;;;;;;5000837;28;20767;-83
2022/03/20 03:01:35;;;;;;;19.53;17.43;;;5.70;58.40;;;;;;5027222;28;20305;-84
2022/03/20 03:04:26;;;;;;;19.40;17.30;;;5.70;57.60;;;;;;5024003;28;20189;-84
2022/03/20 03:07:06;;;;;;;19.07;17.07;;;5.80;57.30;;;;;;5022885;28;20201;-83
2022/03/20 03:12:37;;;;;;;19.93;17.10;;;5.80;57.30;;;;;;5038908;28;20266;-84
2022/03/20 03:15:21;;;;;;;18.93;17.03;;;5.80;56.90;;;;;;5042348;28;20304;-84
2022/03/20 03:17:53;;;;;;;18.37;16.37;;;5.90;57.10;;;;;;5037409;28;20271;-83
2022/03/20 03:20:19;;;;;;;19.07;17.00;;;5.90;56.90;;;;;;5020992;28;20267;-84
2022/03/20 03:26:28;;;;;;;;;;;;;;;;;;;;;
2022/03/20 03:28:55;;;;;;;20.60;16.83;;;5.90;55.70;;;;;;5037413;28;20257;-84
2022/03/20 03:31:47;;;;;;;19.97;16.57;;;5.90;55.80;;;;;;5003361;28;20181;-84
2022/03/20 03:37:22;;;;;;;18.67;16.70;;;5.80;55.30;;;;;;5036442;28;20219;-84
2022/03/20 03:40:55;;;;;;;17.53;15.57;;;5.90;56.60;;;;;;5046329;28;20200;-84
2022/03/20 03:43:54;;;;;;;18.87;16.10;;;6.00;54.70;;;;;;4917649;29;20246;-84
2022/03/20 03:47:06;;;;;;;17.93;16.10;;;6.00;55.00;;;;;;5007409;28;20197;-84
2022/03/20 03:50:08;;;;;;;20.00;17.80;;;6.00;54.70;;;;;;5009195;28;20258;-84
2022/03/20 03:53:03;;;;;;;18.53;16.57;;;5.90;55.20;;;;;;5027529;28;20192;-84
2022/03/20 03:56:31;;;;;;;21.50;17.50;;;6.10;56.30;;;;;;5041822;28;20191;-84
2022/03/20 03:59:02;;;;;;;18.97;17.00;;;6.30;54.90;;;;;;4965495;28;20218;-83
2022/03/20 04:01:31;;;;;;;18.30;16.33;;;6.20;53.70;;;;;;5006906;28;20193;-84
2022/03/20 04:04:01;;;;;;;20.83;16.53;;;6.10;54.70;;;;;;5023602;28;20181;-84
2022/03/20 04:07:06;;;;;;;17.67;15.97;;;6.20;54.80;;;;;;5008667;28;20230;-84
2022/03/20 04:09:53;;;;;;;;;;;;;;;;;;;;;
2022/03/20 04:12:55;;;;;;;17.57;15.67;;;6.30;54.80;;;;;;5042224;28;20745;-84
2022/03/20 04:15:39;;;;;;;18.90;15.90;;;6.40;55.00;;;;;;5008819;28;20725;-84
2022/03/20 04:18:05;;;;;;;19.97;17.77;;;6.40;54.90;;;;;;5045149;23;20281;-85
2022/03/20 04:20:31;;;;;;;20.17;16.43;;;6.40;54.10;;;;;;5023657;28;20212;-84
2022/03/20 04:25:41;;;;;;;17.17;15.50;;;6.40;54.70;;;;;;5010168;28;20198;-85
2022/03/20 04:28:06;;;;;;;18.23;16.23;;;6.50;54.50;;;;;;5020202;28;20181;-85
2022/03/20 04:30:34;;;;;;;18.87;16.90;;;6.40;54.10;;;;;;5013399;28;20251;-85
2022/03/20 04:33:00;;;;;;;18.23;16.43;;;6.40;53.90;;;;;;5012418;28;20210;-85
2022/03/20 04:35:25;;;;;;;19.13;17.23;;;6.50;54.20;;;;;;5012783;28;20244;-85
2022/03/20 04:37:52;;;;;;;16.13;14.73;;;6.50;54.00;;;;;;4996659;28;20265;-85
2022/03/20 04:40:19;;;;;;;19.00;17.00;;;6.50;55.40;;;;;;5019859;28;20190;-85
2022/03/20 04:42:44;;;;;;;17.60;15.73;;;6.60;54.20;;;;;;5012187;28;20320;-85
2022/03/20 04:45:13;;;;;;;18.00;15.43;;;6.60;54.50;;;;;;5014498;28;20198;-85
2022/03/20 04:58:40;;;;;;;19.17;17.17;;;6.70;54.00;;;;;;5016934;28;20785;-85
2022/03/20 05:01:06;;;;;;;19.27;16.90;;;6.70;55.40;;;;;;5012778;28;20254;-85
2022/03/20 05:03:33;;;;;;;17.23;15.43;;;6.70;55.40;;;;;;5010696;28;20205;-85
2022/03/20 05:06:00;;;;;;;18.33;16.50;;;6.70;56.00;;;;;;5010644;28;20186;-85
2022/03/20 05:08:26;;;;;;;20.27;18.17;;;6.80;55.20;;;;;;5011321;28;20684;-85
2022/03/20 05:13:36;;;;;;;18.47;16.53;;;6.80;54.40;;;;;;5013705;28;20276;-84
2022/03/20 05:16:02;;;;;;;19.53;17.63;;;6.80;53.90;;;;;;5006367;28;20206;-85
2022/03/20 05:18:28;;;;;;;18.80;16.63;;;6.80;53.90;;;;;;5012852;28;20217;-85
2022/03/20 05:20:54;;;;;;;19.13;17.17;;;6.70;54.30;;;;;;4994585;28;20530;-84
2022/03/20 05:23:21;;;;;;;17.50;15.73;;;6.40;55.50;;;;;;5008127;28;20355;-85
2022/03/20 05:25:47;;;;;;;18.27;16.40;;;6.30;56.10;;;;;;5017844;28;20173;-85
2022/03/20 05:28:13;;;;;;;20.93;16.10;;;6.10;58.00;;;;;;5015440;28;20182;-85
2022/03/20 05:30:40;;;;;;;18.07;16.17;;;6.20;57.50;;;;;;5012380;28;20193;-85
2022/03/20 05:33:08;;;;;;;18.63;16.73;;;6.20;57.10;;;;;;5009408;28;20668;-85
2022/03/20 05:35:34;;;;;;;19.23;16.73;;;6.20;57.50;;;;;;5007717;28;20251;-84
2022/03/20 05:38:00;;;;;;;18.10;15.57;;;6.00;59.10;;;;;;5007661;28;20174;-85
2022/03/20 05:40:26;;;;;;;17.20;15.50;;;5.90;60.10;;;;;;5006899;28;20193;-86
2022/03/20 05:42:52;;;;;;;17.10;15.30;;;5.90;60.70;;;;;;5016672;28;20722;-84
2022/03/20 05:45:18;;;;;;;20.20;16.03;;;5.90;60.90;;;;;;5017101;28;20185;-84
2022/03/20 05:47:43;;;;;;;18.40;16.57;;;6.00;61.30;;;;;;5012797;28;20193;-84
2022/03/20 05:50:09;;;;;;;18.37;16.47;;;6.20;62.50;;;;;;5008139;28;20222;-84
2022/03/20 05:52:35;;;;;;;16.97;15.27;;;6.40;59.60;;;;;;5014306;28;20218;-85
2022/03/20 05:55:03;;;;;;;17.30;15.50;;;6.40;61.10;;;;;;5005453;28;20807;-85
2022/03/20 06:00:25;;;;;;;17.30;15.60;;;6.40;62.10;;;;;;5016515;28;20196;-85
2022/03/20 06:02:51;;;;;;;17.57;15.77;;;6.50;61.60;;;;;;5015187;28;20268;-84
2022/03/20 06:05:17;;;;;;;18.83;15.87;;;6.50;61.50;;;;;;5010784;28;20217;-84
2022/03/20 06:07:44;;;;;;;17.70;15.90;;;6.50;61.20;;;;;;4994319;28;20289;-85
2022/03/20 06:10:14;;;;;;;17.80;16.00;;;6.50;61.30;;;;;;5020870;28;20193;-85
2022/03/20 06:12:41;;;;;;;17.30;15.50;;;6.60;62.10;;;;;;5017152;28;20267;-85
2022/03/20 06:15:08;;;;;;;18.13;16.23;;;6.60;62.80;;;;;;5014574;28;20269;-84
2022/03/20 06:17:40;;;;;;;16.93;15.30;;;6.60;62.20;;;;;;5006115;28;20197;-84
2022/03/20 06:20:09;;;;;;;17.20;15.40;;;6.70;61.80;;;;;;5004387;28;20209;-84
2022/03/20 06:22:35;;;;;;;22.13;20.13;;;6.80;61.40;;;;;;5016477;28;20221;-84
2022/03/20 06:25:09;;;;;;;17.97;16.10;;;6.50;62.20;;;;;;5020904;28;20234;-84
2022/03/20 06:27:48;;;;;;;17.63;15.70;;;6.40;64.10;;;;;;5021160;28;20217;-84
2022/03/20 06:30:15;;;;;;;19.97;16.37;;;6.40;63.70;;;;;;5012613;28;20177;-84
2022/03/20 06:32:41;;;;;;;18.03;16.13;;;6.50;64.00;;;;;;5016904;28;20239;-84
2022/03/20 06:35:08;;;;;;;18.07;16.17;;;6.70;63.00;;;;;;5024811;28;20186;-84
2022/03/20 06:37:39;;;;;;;17.80;16.00;;;6.80;61.90;;;;;;5022229;28;20205;-85
2022/03/20 06:40:06;;;;;;;19.07;17.07;;;6.80;63.30;;;;;;5013156;28;20193;-85
2022/03/20 06:42:33;;;;;;;18.73;16.30;;;6.80;61.80;;;;;;5025230;28;20225;-85
2022/03/20 06:45:00;;;;;;;19.43;17.23;;;6.80;62.20;;;;;;5021708;28;20221;-85
2022/03/20 06:47:26;;;;;;;17.53;15.83;;;6.80;61.50;;;;;;5029459;28;20184;-84
2022/03/20 06:49:53;;;;;;;18.37;16.43;;;6.80;60.20;;;;;;5017209;28;20209;-85
2022/03/20 06:52:22;;;;;;;17.93;16.03;;;6.90;60.40;;;;;;5028007;28;20970;-85
2022/03/20 06:54:49;;;;;;;19.00;17.07;;;7.00;59.50;;;;;;5015055;28;20193;-85
2022/03/20 06:57:18;;;;;;;19.50;17.40;;;7.10;59.80;;;;;;5041075;28;20185;-83
2022/03/20 06:59:44;;;;;;;18.27;16.47;;;7.10;60.40;;;;;;5010671;28;20196;-85
2022/03/20 07:02:09;;;;;;;18.83;17.03;;;7.20;60.60;;;;;;5022611;28;20222;-85
2022/03/20 07:04:35;;;;;;;17.53;15.83;;;7.30;61.20;;;;;;5022288;28;20189;-84
2022/03/20 07:07:01;;;;;;;19.10;17.13;;;7.40;62.10;;;;;;5015398;28;20182;-85
2022/03/20 07:09:27;;;;;;;18.80;16.90;;;7.30;61.30;;;;;;5020402;28;20197;-85
2022/03/20 07:11:53;;;;;;;21.10;18.73;;;7.30;62.50;;;;;;5017217;28;20209;-85
2022/03/20 07:14:19;;;;;;;20.70;18.47;;;7.40;61.40;;;;;;5019473;28;20193;-85
2022/03/20 07:16:45;;;;;;;22.37;19.97;;;7.40;61.50;;;;;;5012254;28;20185;-85
2022/03/20 07:19:11;;;;;;;21.43;19.27;;;7.30;58.60;;;;;;5014510;28;20201;-84
2022/03/20 07:21:37;;;;;;;21.27;19.20;;;7.20;58.60;;;;;;5014170;28;20214;-84
2022/03/20 07:24:03;;;;;;;22.10;18.97;;;7.10;63.20;;;;;;5018326;28;20225;-85
2022/03/20 07:29:32;;;;;;;20.77;18.77;;;6.80;62.30;;;;;;5023908;28;20209;-85
2022/03/20 07:32:06;;;;;;;21.27;18.97;;;7.10;59.80;;;;;;5022009;28;20304;-85
2022/03/20 07:34:34;;;;;;;22.20;19.80;;;7.10;58.10;;;;;;5017398;28;20260;-84
2022/03/20 07:37:01;;;;;;;22.67;20.30;;;7.00;59.20;;;;;;5009757;28;20201;-84
2022/03/20 07:39:28;;;;;;;21.80;19.60;;;7.20;56.90;;;;;;5017340;28;20888;-85
2022/03/20 07:41:53;;;;;;;21.60;19.40;;;7.20;57.30;;;;;;5019239;28;20210;-84
2022/03/20 07:44:19;;;;;;;21.53;19.30;;;7.30;58.30;;;;;;5008672;28;20185;-85
2022/03/20 07:46:45;;;;;;;23.67;21.27;;;7.50;57.30;;;;;;5020022;28;20182;-85
2022/03/20 07:49:10;;;;;;;22.07;18.93;;;7.70;57.60;;;;;;5019695;28;20258;-84
2022/03/20 07:51:37;;;;;;;21.30;19.10;;;7.80;56.80;;;;;;5021757;28;20225;-85
2022/03/20 07:54:03;;;;;;;21.47;19.37;;;7.90;57.20;;;;;;5004991;28;20200;-85
2022/03/20 07:56:34;;;;;;;22.67;20.00;;;8.00;56.10;;;;;;5020313;28;20190;-83
2022/03/20 07:59:00;;;;;;;21.80;19.53;;;7.90;57.30;;;;;;5011397;28;20214;-84
2022/03/20 08:01:28;;;;;;;21.53;19.43;;;7.80;58.10;;;;;;5014494;28;20816;-84
2022/03/20 08:03:55;;;;;;;24.50;21.90;;;8.00;59.90;;;;;;4996766;28;20214;-84
2022/03/20 08:06:21;;;;;;;23.40;20.93;;;8.20;59.00;;;;;;5000073;28;20196;-84
2022/03/20 08:08:46;;;;;;;24.03;21.50;;;8.30;60.20;;;;;;5019615;28;20189;-85
2022/03/20 08:11:12;;;;;;;23.03;20.83;;;8.30;60.80;;;;;;5019476;28;20189;-85
2022/03/20 08:13:38;;;;;;;23.00;20.67;;;8.40;60.90;;;;;;4998187;28;20194;-85
2022/03/20 08:16:04;;;;;;;23.87;21.33;;;8.60;61.20;;;;;;5010595;28;20186;-85
2022/03/20 08:18:30;;;;;;;22.77;20.53;;;8.80;61.50;;;;;;5019552;28;20841;-84
2022/03/20 08:20:56;;;;;;;22.83;20.27;;;9.00;59.80;;;;;;5010094;28;20193;-85
2022/03/20 08:23:21;;;;;;;23.83;21.43;;;9.10;59.10;;;;;;5022560;28;20208;-84
2022/03/20 08:25:47;;;;;;;22.40;20.07;;;9.20;56.90;;;;;;5027432;28;20197;-86
2022/03/20 08:28:13;;;;;;;24.07;21.77;;;9.30;55.70;;;;;;5027969;28;20336;-84
2022/03/20 08:30:42;;;;;;;23.73;21.30;;;9.10;56.20;;;;;;5010046;28;20239;-86
2022/03/20 08:33:08;;;;;;;24.17;21.53;;;9.20;55.90;;;;;;5019636;28;20206;-85
2022/03/20 08:35:34;;;;;;;25.40;22.70;;;9.40;55.00;;;;;;5026376;28;20212;-84
2022/03/20 08:38:00;;;;;;;24.90;22.37;;;9.30;53.50;;;;;;5028848;28;20252;-84
2022/03/20 08:40:26;;;;;;;23.63;21.23;;;9.10;55.00;;;;;;5000707;28;20193;-84
2022/03/20 08:42:54;;;;;;;23.40;20.97;;;9.20;56.50;;;;;;5016420;28;20248;-85
2022/03/20 08:45:31;;;;;;;25.57;23.03;;;9.20;55.90;;;;;;5011944;28;20185;-84
2022/03/20 08:47:57;;;;;;;27.20;22.37;;;9.40;54.00;;;;;;4998142;28;20177;-84
2022/03/20 08:50:24;;;;;;;26.07;23.33;;;9.20;56.20;;;;;;5018336;28;20197;-85
2022/03/20 08:52:50;;;;;;;24.57;22.13;;;8.90;57.40;;;;;;5008971;28;20218;-85
2022/03/20 08:55:16;;;;;;;24.67;22.07;;;8.90;57.10;;;;;;5014263;28;20200;-85
2022/03/20 08:57:46;;;;;;;25.60;22.67;;;8.70;58.40;;;;;;5018742;28;20189;-84
2022/03/20 09:00:16;;;;;;;24.20;21.73;;;8.60;58.60;;;;;;5020373;28;20181;-85
2022/03/20 09:02:44;;;;;;;23.70;21.30;;;8.70;56.70;;;;;;5003513;28;20295;-85
2022/03/20 09:05:11;;;;;;;22.27;19.97;;;8.80;55.90;;;;;;5022895;28;20192;-85
2022/03/20 09:07:41;;;;;;;23.57;21.17;;;8.90;54.30;;;;;;5019839;28;20206;-85
2022/03/20 09:10:08;;;;;;;22.97;20.20;;;8.90;54.60;;;;;;5023241;28;20248;-85
2022/03/20 09:12:37;;;;;;;22.00;19.70;;;8.90;55.40;;;;;;5018484;28;20213;-84
2022/03/20 09:15:05;;;;;;;22.30;20.03;;;8.80;55.20;;;;;;5019846;28;20217;-85
2022/03/20 09:20:17;;;;;;;23.03;20.73;;;8.80;57.30;;;;;;5020176;28;20223;-85
2022/03/20 09:22:43;;;;;;;23.03;20.83;;;9.00;56.20;;;;;;5018236;28;20225;-84
2022/03/20 09:25:09;;;;;;;24.57;21.07;;;9.30;55.90;;;;;;5016785;28;20189;-84
2022/03/20 09:27:35;;;;;;;23.97;21.47;;;9.30;56.80;;;;;;4999397;28;20194;-84
2022/03/20 09:30:03;;;;;;;23.07;20.67;;;9.30;55.70;;;;;;5018056;28;20245;-85
2022/03/20 09:32:29;;;;;;;23.47;20.47;;;9.40;56.50;;;;;;5020268;28;20253;-85
2022/03/20 09:34:54;;;;;;;24.97;22.40;;;9.50;56.70;;;;;;5018035;28;20679;-85
2022/03/20 09:37:20;;;;;;;25.00;22.27;;;9.30;56.70;;;;;;5015140;28;20262;-85
2022/03/20 09:39:46;;;;;;;24.77;22.17;;;9.40;57.40;;;;;;5017704;28;20200;-85
2022/03/20 09:42:12;;;;;;;24.57;21.90;;;9.40;57.00;;;;;;5018400;28;20236;-85
2022/03/20 09:44:39;;;;;;;23.70;21.20;;;9.30;58.50;;;;;;5019800;28;20272;-85
2022/03/20 09:47:18;;;;;;;26.27;21.93;;;9.40;58.50;;;;;;5018735;28;20192;-85
2022/03/20 09:49:47;;;;;;;27.33;23.40;;;9.30;58.20;;;;;;5018248;28;20213;-85
2022/03/20 09:52:14;;;;;;;26.13;23.27;;;9.30;57.70;;;;;;5021807;28;20228;-85
2022/03/20 09:54:40;;;;;;;24.10;21.70;;;9.40;58.40;;;;;;5022035;28;20193;-85
2022/03/20 09:57:08;;;;;;;25.00;22.47;;;9.20;58.50;;;;;;5021819;28;20192;-85
2022/03/20 09:59:36;;;;;;;24.33;21.93;;;9.30;58.60;;;;;;5000132;28;20199;-86
2022/03/20 10:02:10;;;;;;;25.60;23.00;;;9.40;59.60;;;;;;5020480;28;20609;-86
2022/03/20 10:04:57;;;;;;;25.30;22.80;;;9.50;58.40;;;;;;5021599;28;20190;-86
2022/03/20 10:07:25;;;;;;;25.83;23.23;;;9.70;58.20;;;;;;5020613;28;20215;-86
2022/03/20 10:10:14;;;;;;;23.60;21.13;;;9.80;59.10;;;;;;5019623;28;20202;-86
2022/03/20 10:12:44;;;;;;;27.27;24.40;;;10.20;58.10;;;;;;5019870;28;20209;-86
2022/03/20 10:15:30;;;;;;;24.53;22.10;;;10.20;58.20;;;;;;5003925;28;20204;-86
2022/03/20 10:18:14;;;;;;;24.60;22.30;;;10.50;56.60;;;;;;5021874;28;20273;-86
2022/03/20 10:20:51;;;;;;;29.60;21.97;;;11.00;55.30;;;;;;5019787;28;20213;-86
2022/03/20 10:23:34;;;;;;;24.90;22.33;;;11.40;54.10;;;;;;5025557;28;20233;-86
2022/03/20 10:26:04;;;;;;;25.87;23.30;;;12.00;53.60;;;;;;5023061;28;20259;-87
2022/03/20 10:28:41;;;;;;;24.80;22.37;;;12.50;52.20;;;;;;5022438;28;20542;-86
2022/03/20 10:31:09;;;;;;;25.93;23.30;;;12.70;50.70;;;;;;5004578;28;20208;-86
2022/03/20 10:33:40;;;;;;;25.33;22.73;;;12.30;51.10;;;;;;5024130;28;20192;-86
2022/03/20 10:36:20;;;;;;;28.93;26.13;;;12.20;51.50;;;;;;5010882;28;20225;-86
2022/03/20 10:38:48;;;;;;;26.30;23.83;;;11.90;52.70;;;;;;5002662;28;20264;-86
2022/03/20 10:41:26;;;;;;;25.63;23.13;;;11.80;54.20;;;;;;5021658;28;20241;-86
2022/03/20 10:43:54;;;;;;;27.80;25.10;;;12.10;51.70;;;;;;5020979;28;20311;-86
2022/03/20 10:46:28;;;;;;;27.70;24.90;;;12.00;52.80;;;;;;5006427;28;20195;-85
2022/03/20 10:48:59;;;;;;;26.03;23.33;;;11.80;53.90;;;;;;5024303;28;20200;-85
2022/03/20 10:51:39;;;;;;;25.47;22.87;;;11.80;52.10;;;;;;5026046;28;20199;-85
2022/03/20 10:54:14;;;;;;;25.43;22.93;;;11.90;52.60;;;;;;5027000;28;20245;-86
2022/03/20 10:56:59;;;;;;;25.57;23.10;;;12.20;51.80;;;;;;5029046;28;20190;-86
2022/03/20 10:59:31;;;;;;;27.87;25.20;;;12.20;51.60;;;;;;5021274;28;20192;-85
2022/03/20 11:01:58;;;;;;;26.77;23.97;;;12.30;52.20;;;;;;5013514;28;20213;-85
2022/03/20 11:04:23;;;;;;;28.43;25.67;;;12.30;51.00;;;;;;5014478;28;20181;-85
2022/03/20 11:06:54;;;;;;;27.73;24.83;;;12.40;50.90;;;;;;5016893;28;20198;-85
2022/03/20 11:09:20;;;;;;;26.67;23.97;;;12.60;50.30;;;;;;5011908;28;20207;-85
2022/03/20 11:11:49;;;;;;;27.33;24.43;;;12.90;49.90;;;;;;4990872;28;20304;-86
2022/03/20 11:14:18;;;;;;;26.87;24.10;;;13.00;49.80;;;;;;5024831;28;20201;-85
2022/03/20 11:16:49;;;;;;;26.90;24.10;;;12.90;49.90;;;;;;5020747;28;20192;-85
2022/03/20 11:19:17;;;;;;;26.30;23.70;;;12.90;49.90;;;;;;5018247;28;20212;-85
2022/03/20 11:21:44;;;;;;;24.20;21.93;;;12.70;50.00;;;;;;5017669;28;20256;-85
2022/03/20 11:24:11;;;;;;;26.97;24.17;;;12.60;50.60;;;;;;5023556;28;20217;-86
2022/03/20 11:26:40;;;;;;;25.17;22.50;;;12.70;51.00;;;;;;5003516;28;20220;-86
2022/03/20 11:29:08;;;;;;;25.73;23.23;;;13.30;49.70;;;;;;4999278;28;20166;-85
2022/03/20 11:31:36;;;;;;;25.33;22.97;;;13.60;48.40;;;;;;5018459;28;20560;-87
2022/03/20 11:34:05;;;;;;;26.03;23.43;;;13.70;48.20;;;;;;5012427;28;20190;-85
2022/03/20 11:36:32;;;;;;;25.03;22.70;;;13.80;47.60;;;;;;4997693;28;20196;-86
2022/03/20 11:39:10;;;;;;;25.93;23.33;;;13.70;47.40;;;;;;5017303;28;20197;-86
2022/03/20 11:41:36;;;;;;;32.73;24.07;;;13.70;48.20;;;;;;5017123;28;20213;-86
2022/03/20 11:44:22;;;;;;;25.63;23.17;;;13.70;48.10;;;;;;5024504;28;20222;-86
2022/03/20 11:47:16;;;;;;;25.17;22.63;;;14.00;48.10;;;;;;5020043;28;20185;-86
2022/03/20 11:49:42;;;;;;;25.53;21.87;;;14.30;47.70;;;;;;5017928;28;20178;-85
2022/03/20 11:52:11;;;;;;;24.77;22.20;;;14.80;47.00;;;;;;5018302;28;20228;-87
2022/03/20 11:54:40;;;;;;;25.10;22.50;;;15.00;45.90;;;;;;5017704;28;20194;-86
2022/03/20 11:57:24;;;;;;;24.53;22.13;;;15.50;45.20;;;;;;5017339;28;20226;-85
2022/03/20 11:59:52;;;;;;;24.97;22.43;;;15.90;44.10;;;;;;5030351;28;20194;-86
2022/03/20 12:02:19;;;;;;;24.20;21.77;;;16.00;43.50;;;;;;5000788;28;20719;-85
2022/03/20 12:05:03;;;;;;;25.27;22.87;;;16.40;42.50;;;;;;5008978;28;20282;-85
2022/03/20 12:07:55;;;;;;;24.87;22.37;;;16.10;43.10;;;;;;5013295;28;20638;-85
2022/03/20 12:10:31;;;;;;;24.63;22.33;;;16.40;42.90;;;;;;5012322;28;20261;-85
2022/03/20 12:13:20;;;;;;;26.13;23.40;;;16.90;41.80;;;;;;5009049;28;20588;-86
2022/03/20 12:15:46;;;;;;;24.87;22.30;;;17.30;42.70;;;;;;5011244;28;20195;-85
2022/03/20 12:18:12;;;;;;;23.17;20.97;;;17.60;41.20;;;;;;5012568;28;20212;-85
2022/03/20 12:21:04;;;;;;;24.00;21.70;;;17.50;40.90;;;;;;5008974;28;20214;-85
2022/03/20 12:23:29;;;;;;;23.07;20.77;;;17.40;41.20;;;;;;5011297;28;20498;-85
2022/03/20 12:25:56;;;;;;;24.63;22.07;;;17.30;41.30;;;;;;5013042;28;20189;-86
2022/03/20 12:28:31;;;;;;;21.57;19.57;;;17.30;42.50;;;;;;5000185;28;20226;-86
2022/03/20 12:30:57;;;;;;;21.90;19.77;;;17.60;41.80;;;;;;5009713;28;20209;-85
2022/03/20 12:33:27;;;;;;;21.83;19.57;;;18.00;40.90;;;;;;5019354;28;20619;-86
2022/03/20 12:35:54;;;;;;;22.43;20.13;;;18.00;40.40;;;;;;5012821;28;20230;-85
2022/03/20 12:38:37;;;;;;;21.80;19.63;;;18.10;40.40;;;;;;5019296;28;20259;-86
2022/03/20 12:41:22;;;;;;;21.38;19.20;;;18.50;41.50;;;;;;5011337;28;20214;-86
2022/03/20 12:44:08;;;;;;;21.98;19.42;;;19.20;38.90;;;;;;5019078;28;20599;-86
2022/03/20 12:46:42;;;;;;;20.70;18.80;;;19.20;38.70;;;;;;5013329;28;20180;-86
2022/03/20 12:49:16;;;;;;;21.20;19.10;;;19.30;38.20;;;;;;5012473;28;20280;-86
2022/03/20 12:51:42;;;;;;;19.83;17.88;;;19.40;37.60;;;;;;5023086;28;20212;-86
2022/03/20 12:54:15;;;;;;;20.75;17.45;;;19.70;38.00;;;;;;5007829;28;20343;-86
2022/03/20 12:56:52;;;;;;;19.30;17.40;;;19.80;37.10;;;;;;5016319;28;20196;-85
2022/03/20 12:59:26;;;;;;;19.05;17.05;;;20.00;36.50;;;;;;5019010;28;20193;-86
2022/03/20 13:01:52;;;;;;;19.20;17.33;;;20.50;36.00;;;;;;5002776;28;20813;-86
2022/03/20 13:04:19;;;;;;;22.65;17.20;;;20.60;35.00;;;;;;5020562;28;20197;-85
2022/03/20 13:06:46;;;;;;;19.58;17.60;;;20.80;35.60;;;;;;5017887;28;20195;-86
2022/03/20 13:09:14;;;;;;;19.38;17.33;;;20.80;34.70;;;;;;5014965;28;20405;-85
2022/03/20 13:11:51;;;;;;;19.30;17.48;;;21.00;34.20;;;;;;5010007;28;20211;-86
2022/03/20 13:14:17;;;;;;;19.05;17.25;;;21.30;33.70;;;;;;5013958;28;20180;-86
2022/03/20 13:17:03;;;;;;;18.70;16.88;;;21.40;32.70;;;;;;5013853;28;20186;-86
2022/03/20 13:19:32;;;;;;;18.50;16.73;;;21.50;32.30;;;;;;5018017;28;20212;-85
2022/03/20 13:22:03;;;;;;;20.00;18.00;;;21.90;31.50;;;;;;5007084;28;20206;-85
2022/03/20 13:24:34;;;;;;;17.05;15.45;;;21.70;32.50;;;;;;5008468;28;20190;-85
2022/03/20 13:27:04;;;;;;;16.67;15.02;;;21.80;31.50;;;;;;5010076;28;20182;-85
2022/03/20 13:29:32;;;;;;;17.77;15.98;;;22.30;30.90;;;;;;5010803;28;20585;-86
2022/03/20 13:32:05;;;;;;;16.50;15.02;;;22.60;30.00;;;;;;5013054;28;20202;-85